sensor_id;sensor_type;location;lat;lon;timestamp;P1;durP1;ratioP1;P2;durP2;ratioP2
19863;SDS011;10094;48.820;9.226;2022-07-29T00:11:32;6.60;;;6.00;;
19863;SDS011;10094;48.820;9.226;2022-07-29T00:18:23;6.82;;;5.75;;
19863;SDS011;10094;48.820;9.226;2022-07-29T00:25:57;5.75;;;5.15;;
19863;SDS011;10094;48.820;9.226;2022-07-29T00:32:39;6.47;;;5.40;;
19863;SDS011;10094;48.820;9.226;2022-07-29T00:39:22;5.68;;;5.15;;
19863;SDS011;10094;48.820;9.226;2022-07-29T00:46:04;7.72;;;6.50;;
19863;SDS011;10094;48.820;9.226;2022-07-29T00:52:47;7.78;;;6.15;;
19863;SDS011;10094;48.820;9.226;2022-07-29T00:59:29;7.05;;;5.93;;
19863;SDS011;10094;48.820;9.226;2022-07-29T01:06:16;9.70;;;6.13;;
19863;SDS011;10094;48.820;9.226;2022-07-29T01:12:59;8.55;;;6.85;;
19863;SDS011;10094;48.820;9.226;2022-07-29T01:20:03;7.47;;;6.70;;
19863;SDS011;10094;48.820;9.226;2022-07-29T01:33:45;6.75;;;6.15;;
19863;SDS011;10094;48.820;9.226;2022-07-29T01:40:52;6.70;;;5.90;;
19863;SDS011;10094;48.820;9.226;2022-07-29T01:47:44;6.57;;;5.97;;
19863;SDS011;10094;48.820;9.226;2022-07-29T01:54:47;7.18;;;6.03;;
19863;SDS011;10094;48.820;9.226;2022-07-29T02:01:33;7.00;;;5.75;;
19863;SDS011;10094;48.820;9.226;2022-07-29T02:08:17;7.68;;;6.10;;
19863;SDS011;10094;48.820;9.226;2022-07-29T02:15:02;6.25;;;5.65;;
19863;SDS011;10094;48.820;9.226;2022-07-29T02:21:46;6.20;;;5.57;;
19863;SDS011;10094;48.820;9.226;2022-07-29T02:28:29;6.63;;;5.95;;
19863;SDS011;10094;48.820;9.226;2022-07-29T02:35:14;5.68;;;5.18;;
19863;SDS011;10094;48.820;9.226;2022-07-29T02:41:59;5.82;;;5.25;;
19863;SDS011;10094;48.820;9.226;2022-07-29T02:48:48;7.70;;;6.00;;
19863;SDS011;10094;48.820;9.226;2022-07-29T02:56:00;7.40;;;6.45;;
19863;SDS011;10094;48.820;9.226;2022-07-29T03:02:43;6.28;;;5.22;;
19863;SDS011;10094;48.820;9.226;2022-07-29T03:09:27;6.10;;;5.60;;
19863;SDS011;10094;48.820;9.226;2022-07-29T03:16:11;7.57;;;6.70;;
19863;SDS011;10094;48.820;9.226;2022-07-29T03:22:54;7.05;;;6.18;;
19863;SDS011;10094;48.820;9.226;2022-07-29T03:29:37;8.32;;;7.03;;
19863;SDS011;10094;48.820;9.226;2022-07-29T03:36:19;7.43;;;6.72;;
19863;SDS011;10094;48.820;9.226;2022-07-29T03:43:02;6.72;;;6.13;;
19863;SDS011;10094;48.820;9.226;2022-07-29T03:49:46;7.75;;;6.97;;
19863;SDS011;10094;48.820;9.226;2022-07-29T03:56:32;8.38;;;6.53;;
19863;SDS011;10094;48.820;9.226;2022-07-29T04:03:16;8.57;;;6.82;;
19863;SDS011;10094;48.820;9.226;2022-07-29T04:09:59;8.80;;;6.80;;
19863;SDS011;10094;48.820;9.226;2022-07-29T04:16:42;10.88;;;6.93;;
19863;SDS011;10094;48.820;9.226;2022-07-29T04:23:25;8.38;;;6.47;;
19863;SDS011;10094;48.820;9.226;2022-07-29T04:30:08;9.18;;;6.80;;
19863;SDS011;10094;48.820;9.226;2022-07-29T04:36:50;10.07;;;6.68;;
19863;SDS011;10094;48.820;9.226;2022-07-29T04:43:36;7.53;;;6.68;;
19863;SDS011;10094;48.820;9.226;2022-07-29T04:50:18;11.15;;;6.97;;
19863;SDS011;10094;48.820;9.226;2022-07-29T04:57:01;10.73;;;7.28;;
19863;SDS011;10094;48.820;9.226;2022-07-29T05:03:43;9.60;;;6.38;;
19863;SDS011;10094;48.820;9.226;2022-07-29T05:10:26;9.63;;;6.70;;
19863;SDS011;10094;48.820;9.226;2022-07-29T05:17:10;7.97;;;5.88;;
19863;SDS011;10094;48.820;9.226;2022-07-29T05:23:52;5.53;;;5.00;;
19863;SDS011;10094;48.820;9.226;2022-07-29T05:30:35;6.07;;;4.10;;
19863;SDS011;10094;48.820;9.226;2022-07-29T05:37:18;4.95;;;4.53;;
19863;SDS011;10094;48.820;9.226;2022-07-29T05:44:01;5.47;;;4.65;;
19863;SDS011;10094;48.820;9.226;2022-07-29T05:50:44;9.70;;;4.40;;
19863;SDS011;10094;48.820;9.226;2022-07-29T05:57:28;9.20;;;4.40;;
19863;SDS011;10094;48.820;9.226;2022-07-29T06:04:11;8.07;;;3.75;;
19863;SDS011;10094;48.820;9.226;2022-07-29T06:10:53;6.93;;;4.32;;
19863;SDS011;10094;48.820;9.226;2022-07-29T06:17:36;4.15;;;3.00;;
19863;SDS011;10094;48.820;9.226;2022-07-29T06:24:38;7.20;;;3.55;;
19863;SDS011;10094;48.820;9.226;2022-07-29T06:31:23;5.05;;;3.33;;
19863;SDS011;10094;48.820;9.226;2022-07-29T06:38:05;4.35;;;2.97;;
19863;SDS011;10094;48.820;9.226;2022-07-29T06:45:08;5.15;;;3.28;;
19863;SDS011;10094;48.820;9.226;2022-07-29T06:51:52;7.63;;;3.22;;
19863;SDS011;10094;48.820;9.226;2022-07-29T06:58:34;5.00;;;3.22;;
19863;SDS011;10094;48.820;9.226;2022-07-29T07:05:17;4.90;;;3.22;;
19863;SDS011;10094;48.820;9.226;2022-07-29T07:12:36;6.30;;;3.05;;
19863;SDS011;10094;48.820;9.226;2022-07-29T07:19:18;3.08;;;2.78;;
19863;SDS011;10094;48.820;9.226;2022-07-29T07:26:01;4.57;;;3.10;;
19863;SDS011;10094;48.820;9.226;2022-07-29T07:32:44;4.18;;;3.22;;
19863;SDS011;10094;48.820;9.226;2022-07-29T07:39:27;4.50;;;2.90;;
19863;SDS011;10094;48.820;9.226;2022-07-29T07:46:10;3.92;;;2.70;;
19863;SDS011;10094;48.820;9.226;2022-07-29T07:52:53;4.65;;;2.95;;
19863;SDS011;10094;48.820;9.226;2022-07-29T07:59:40;3.53;;;3.22;;
19863;SDS011;10094;48.820;9.226;2022-07-29T08:06:22;6.10;;;4.07;;
19863;SDS011;10094;48.820;9.226;2022-07-29T08:13:06;4.07;;;3.08;;
19863;SDS011;10094;48.820;9.226;2022-07-29T08:19:50;4.90;;;3.50;;
19863;SDS011;10094;48.820;9.226;2022-07-29T08:26:32;5.20;;;3.55;;
19863;SDS011;10094;48.820;9.226;2022-07-29T08:33:15;4.13;;;3.15;;
19863;SDS011;10094;48.820;9.226;2022-07-29T08:39:57;4.22;;;3.00;;
19863;SDS011;10094;48.820;9.226;2022-07-29T08:46:39;5.60;;;3.35;;
19863;SDS011;10094;48.820;9.226;2022-07-29T08:53:23;4.00;;;3.70;;
19863;SDS011;10094;48.820;9.226;2022-07-29T09:00:08;4.47;;;3.22;;
19863;SDS011;10094;48.820;9.226;2022-07-29T09:06:53;6.70;;;3.10;;
19863;SDS011;10094;48.820;9.226;2022-07-29T09:13:39;8.85;;;4.20;;
19863;SDS011;10094;48.820;9.226;2022-07-29T09:20:22;4.22;;;3.70;;
19863;SDS011;10094;48.820;9.226;2022-07-29T09:27:12;5.13;;;3.40;;
19863;SDS011;10094;48.820;9.226;2022-07-29T09:34:04;4.28;;;3.70;;
19863;SDS011;10094;48.820;9.226;2022-07-29T09:40:55;4.97;;;3.80;;
19863;SDS011;10094;48.820;9.226;2022-07-29T09:47:46;5.35;;;3.50;;
19863;SDS011;10094;48.820;9.226;2022-07-29T09:54:31;5.60;;;3.70;;
19863;SDS011;10094;48.820;9.226;2022-07-29T10:01:27;5.28;;;3.90;;
19863;SDS011;10094;48.820;9.226;2022-07-29T10:08:10;4.80;;;3.90;;
19863;SDS011;10094;48.820;9.226;2022-07-29T10:14:54;4.53;;;4.13;;
19863;SDS011;10094;48.820;9.226;2022-07-29T10:21:37;7.93;;;4.13;;
19863;SDS011;10094;48.820;9.226;2022-07-29T10:28:21;7.15;;;4.53;;
19863;SDS011;10094;48.820;9.226;2022-07-29T10:35:08;5.60;;;4.10;;
19863;SDS011;10094;48.820;9.226;2022-07-29T10:42:31;5.45;;;4.10;;
19863;SDS011;10094;48.820;9.226;2022-07-29T10:49:16;8.27;;;4.82;;
19863;SDS011;10094;48.820;9.226;2022-07-29T10:56:05;5.90;;;4.53;;
19863;SDS011;10094;48.820;9.226;2022-07-29T11:03:08;7.15;;;4.22;;
19863;SDS011;10094;48.820;9.226;2022-07-29T11:17:05;6.75;;;4.65;;
19863;SDS011;10094;48.820;9.226;2022-07-29T11:23:50;9.85;;;6.40;;
19863;SDS011;10094;48.820;9.226;2022-07-29T11:31:09;6.90;;;6.03;;
19863;SDS011;10094;48.820;9.226;2022-07-29T11:52:38;7.22;;;5.38;;
19863;SDS011;10094;48.820;9.226;2022-07-29T11:59:30;4.80;;;3.60;;
19863;SDS011;10094;48.820;9.226;2022-07-29T12:06:33;4.80;;;3.70;;
19863;SDS011;10094;48.820;9.226;2022-07-29T12:13:19;8.85;;;3.60;;
19863;SDS011;10094;48.820;9.226;2022-07-29T12:20:03;7.78;;;3.25;;
19863;SDS011;10094;48.820;9.226;2022-07-29T12:26:49;5.20;;;3.20;;
19863;SDS011;10094;48.820;9.226;2022-07-29T12:33:33;5.43;;;3.08;;
19863;SDS011;10094;48.820;9.226;2022-07-29T12:40:17;5.30;;;3.65;;
19863;SDS011;10094;48.820;9.226;2022-07-29T12:47:03;4.05;;;3.15;;
19863;SDS011;10094;48.820;9.226;2022-07-29T12:54:01;3.88;;;3.47;;
19863;SDS011;10094;48.820;9.226;2022-07-29T13:00:57;5.05;;;3.75;;
19863;SDS011;10094;48.820;9.226;2022-07-29T13:08:09;7.75;;;4.40;;
19863;SDS011;10094;48.820;9.226;2022-07-29T13:15:15;9.88;;;4.75;;
19863;SDS011;10094;48.820;9.226;2022-07-29T13:21:57;6.45;;;4.18;;
19863;SDS011;10094;48.820;9.226;2022-07-29T13:28:41;5.43;;;4.30;;
19863;SDS011;10094;48.820;9.226;2022-07-29T13:35:25;5.65;;;4.93;;
19863;SDS011;10094;48.820;9.226;2022-07-29T13:42:07;8.38;;;5.45;;
19863;SDS011;10094;48.820;9.226;2022-07-29T13:48:52;6.43;;;5.45;;
19863;SDS011;10094;48.820;9.226;2022-07-29T13:55:34;7.68;;;6.05;;
19863;SDS011;10094;48.820;9.226;2022-07-29T14:02:17;6.93;;;5.32;;
19863;SDS011;10094;48.820;9.226;2022-07-29T14:08:59;6.38;;;5.28;;
19863;SDS011;10094;48.820;9.226;2022-07-29T14:15:43;8.85;;;6.25;;
19863;SDS011;10094;48.820;9.226;2022-07-29T14:22:25;6.32;;;5.72;;
19863;SDS011;10094;48.820;9.226;2022-07-29T14:29:08;9.70;;;6.47;;
19863;SDS011;10094;48.820;9.226;2022-07-29T14:35:50;11.70;;;6.30;;
19863;SDS011;10094;48.820;9.226;2022-07-29T14:42:33;7.93;;;6.30;;
19863;SDS011;10094;48.820;9.226;2022-07-29T14:49:15;9.02;;;7.47;;
19863;SDS011;10094;48.820;9.226;2022-07-29T14:55:58;12.77;;;7.30;;
19863;SDS011;10094;48.820;9.226;2022-07-29T15:03:00;8.20;;;7.03;;
19863;SDS011;10094;48.820;9.226;2022-07-29T15:09:44;12.85;;;6.82;;
19863;SDS011;10094;48.820;9.226;2022-07-29T15:16:30;8.82;;;6.57;;
19863;SDS011;10094;48.820;9.226;2022-07-29T15:23:13;12.80;;;7.57;;
19863;SDS011;10094;48.820;9.226;2022-07-29T15:29:55;7.47;;;6.57;;
19863;SDS011;10094;48.820;9.226;2022-07-29T15:36:38;9.02;;;7.18;;
19863;SDS011;10094;48.820;9.226;2022-07-29T15:43:36;8.05;;;6.90;;
19863;SDS011;10094;48.820;9.226;2022-07-29T15:50:19;9.55;;;6.43;;
19863;SDS011;10094;48.820;9.226;2022-07-29T15:57:01;8.13;;;6.50;;
19863;SDS011;10094;48.820;9.226;2022-07-29T16:03:45;7.25;;;6.53;;
19863;SDS011;10094;48.820;9.226;2022-07-29T16:10:28;7.63;;;6.55;;
19863;SDS011;10094;48.820;9.226;2022-07-29T16:17:10;6.50;;;5.63;;
19863;SDS011;10094;48.820;9.226;2022-07-29T16:23:56;7.80;;;5.43;;
19863;SDS011;10094;48.820;9.226;2022-07-29T16:30:42;6.85;;;5.78;;
19863;SDS011;10094;48.820;9.226;2022-07-29T16:37:24;6.25;;;5.65;;
19863;SDS011;10094;48.820;9.226;2022-07-29T16:44:09;7.00;;;5.78;;
19863;SDS011;10094;48.820;9.226;2022-07-29T16:50:52;6.85;;;6.13;;
19863;SDS011;10094;48.820;9.226;2022-07-29T16:57:34;6.97;;;5.47;;
19863;SDS011;10094;48.820;9.226;2022-07-29T17:04:17;6.82;;;5.47;;
19863;SDS011;10094;48.820;9.226;2022-07-29T17:11:19;6.90;;;6.30;;
19863;SDS011;10094;48.820;9.226;2022-07-29T17:18:01;7.47;;;5.93;;
19863;SDS011;10094;48.820;9.226;2022-07-29T17:24:53;9.80;;;6.65;;
19863;SDS011;10094;48.820;9.226;2022-07-29T17:31:36;9.05;;;6.35;;
19863;SDS011;10094;48.820;9.226;2022-07-29T17:38:19;9.00;;;6.47;;
19863;SDS011;10094;48.820;9.226;2022-07-29T17:45:02;7.25;;;6.28;;
19863;SDS011;10094;48.820;9.226;2022-07-29T17:51:45;7.43;;;6.35;;
19863;SDS011;10094;48.820;9.226;2022-07-29T17:58:27;7.70;;;6.95;;
19863;SDS011;10094;48.820;9.226;2022-07-29T18:05:10;8.02;;;6.20;;
19863;SDS011;10094;48.820;9.226;2022-07-29T18:11:52;7.10;;;6.40;;
19863;SDS011;10094;48.820;9.226;2022-07-29T18:18:34;7.95;;;6.25;;
19863;SDS011;10094;48.820;9.226;2022-07-29T18:25:17;8.82;;;6.68;;
19863;SDS011;10094;48.820;9.226;2022-07-29T18:31:59;7.82;;;6.05;;
19863;SDS011;10094;48.820;9.226;2022-07-29T18:38:42;7.32;;;6.00;;
19863;SDS011;10094;48.820;9.226;2022-07-29T18:45:24;9.57;;;6.85;;
19863;SDS011;10094;48.820;9.226;2022-07-29T18:52:09;11.10;;;7.38;;
19863;SDS011;10094;48.820;9.226;2022-07-29T18:58:53;9.10;;;7.03;;
19863;SDS011;10094;48.820;9.226;2022-07-29T19:05:35;9.63;;;8.18;;
19863;SDS011;10094;48.820;9.226;2022-07-29T19:12:18;9.73;;;8.05;;
19863;SDS011;10094;48.820;9.226;2022-07-29T19:19:01;9.27;;;8.35;;
19863;SDS011;10094;48.820;9.226;2022-07-29T19:25:43;14.00;;;8.60;;
19863;SDS011;10094;48.820;9.226;2022-07-29T19:32:35;11.48;;;8.25;;
19863;SDS011;10094;48.820;9.226;2022-07-29T19:39:18;13.25;;;9.50;;
19863;SDS011;10094;48.820;9.226;2022-07-29T19:46:15;13.70;;;9.07;;
19863;SDS011;10094;48.820;9.226;2022-07-29T19:52:58;10.15;;;7.95;;
19863;SDS011;10094;48.820;9.226;2022-07-29T19:59:42;9.27;;;8.18;;
19863;SDS011;10094;48.820;9.226;2022-07-29T20:06:25;7.78;;;6.43;;
19863;SDS011;10094;48.820;9.226;2022-07-29T20:13:07;12.13;;;7.78;;
19863;SDS011;10094;48.820;9.226;2022-07-29T20:19:50;8.77;;;6.90;;
19863;SDS011;10094;48.820;9.226;2022-07-29T20:26:33;10.43;;;7.68;;
19863;SDS011;10094;48.820;9.226;2022-07-29T20:33:16;10.88;;;7.93;;
19863;SDS011;10094;48.820;9.226;2022-07-29T20:39:58;8.30;;;7.47;;
19863;SDS011;10094;48.820;9.226;2022-07-29T20:46:41;9.75;;;5.95;;
19863;SDS011;10094;48.820;9.226;2022-07-29T20:53:23;6.07;;;5.47;;
19863;SDS011;10094;48.820;9.226;2022-07-29T21:00:06;7.30;;;5.25;;
19863;SDS011;10094;48.820;9.226;2022-07-29T21:06:49;7.22;;;5.53;;
19863;SDS011;10094;48.820;9.226;2022-07-29T21:13:32;6.32;;;5.72;;
19863;SDS011;10094;48.820;9.226;2022-07-29T21:20:19;7.75;;;6.57;;
19863;SDS011;10094;48.820;9.226;2022-07-29T21:27:01;8.50;;;7.60;;
19863;SDS011;10094;48.820;9.226;2022-07-29T21:34:02;8.07;;;7.32;;
19863;SDS011;10094;48.820;9.226;2022-07-29T21:40:45;7.40;;;6.80;;
19863;SDS011;10094;48.820;9.226;2022-07-29T21:47:29;7.40;;;6.40;;
19863;SDS011;10094;48.820;9.226;2022-07-29T21:54:12;7.68;;;6.97;;
19863;SDS011;10094;48.820;9.226;2022-07-29T22:00:54;8.07;;;7.28;;
19863;SDS011;10094;48.820;9.226;2022-07-29T22:07:37;8.88;;;7.97;;
19863;SDS011;10094;48.820;9.226;2022-07-29T22:14:37;10.25;;;7.78;;
19863;SDS011;10094;48.820;9.226;2022-07-29T22:21:19;12.15;;;10.70;;
19863;SDS011;10094;48.820;9.226;2022-07-29T22:28:02;12.23;;;11.07;;
19863;SDS011;10094;48.820;9.226;2022-07-29T22:34:44;12.20;;;10.90;;
19863;SDS011;10094;48.820;9.226;2022-07-29T22:41:27;13.70;;;10.70;;
19863;SDS011;10094;48.820;9.226;2022-07-29T22:48:10;12.77;;;11.48;;
19863;SDS011;10094;48.820;9.226;2022-07-29T22:54:53;16.17;;;11.30;;
19863;SDS011;10094;48.820;9.226;2022-07-29T23:01:35;11.38;;;10.20;;
19863;SDS011;10094;48.820;9.226;2022-07-29T23:08:19;11.90;;;10.68;;
19863;SDS011;10094;48.820;9.226;2022-07-29T23:15:02;13.55;;;11.10;;
19863;SDS011;10094;48.820;9.226;2022-07-29T23:22:40;11.20;;;10.10;;
19863;SDS011;10094;48.820;9.226;2022-07-29T23:29:23;13.18;;;10.32;;
19863;SDS011;10094;48.820;9.226;2022-07-29T23:36:05;12.07;;;9.25;;
19863;SDS011;10094;48.820;9.226;2022-07-29T23:42:47;10.43;;;9.32;;
19863;SDS011;10094;48.820;9.226;2022-07-29T23:49:30;11.50;;;9.18;;
19863;SDS011;10094;48.820;9.226;2022-07-29T23:56:12;10.20;;;9.13;;
